createdAt,value
2023-01-22T00:00:05.963Z,100719.56
2023-01-22T00:02:36.101Z,100717.25
2023-01-22T00:05:05.974Z,100721.44
2023-01-22T00:07:32.721Z,100716.41
2023-01-22T00:10:00.028Z,100713.88
2023-01-22T00:12:26.922Z,100716.41
2023-01-22T00:14:53.639Z,100717.25
2023-01-22T00:17:20.012Z,100716.81
2023-01-22T00:19:46.376Z,100711.06
2023-01-22T00:22:12.759Z,100714.59
2023-01-22T00:24:40.072Z,100721.50
2023-01-22T00:27:06.508Z,100720.81
2023-01-22T00:29:32.897Z,100719.03
2023-01-22T00:31:59.596Z,100715.59
2023-01-22T00:34:26.130Z,100717.41
2023-01-22T00:36:54.029Z,100712.81
2023-01-22T00:39:21.542Z,100717.41
2023-01-22T00:41:49.659Z,100720.66
2023-01-22T00:44:16.232Z,100720.81
2023-01-22T00:46:42.743Z,100717.50
2023-01-22T00:49:09.320Z,100724.00
2023-01-22T00:51:36.723Z,100729.50
2023-01-22T00:54:03.372Z,100726.66
2023-01-22T00:56:29.784Z,100735.09
2023-01-22T00:58:58.450Z,100737.94
2023-01-22T01:01:25.286Z,100742.91
2023-01-22T01:03:51.866Z,100737.53
2023-01-22T01:06:21.361Z,100744.13
2023-01-22T01:08:48.321Z,100746.59
2023-01-22T01:11:21.883Z,100737.69
2023-01-22T01:13:49.723Z,100753.66
2023-01-22T01:16:21.791Z,100745.19
2023-01-22T01:18:48.643Z,100739.25
2023-01-22T01:21:15.682Z,100750.31
2023-01-22T01:23:42.773Z,100747.69
2023-01-22T01:26:12.357Z,100742.19
2023-01-22T01:28:40.125Z,100738.91
2023-01-22T01:31:09.097Z,100745.56
2023-01-22T01:33:35.767Z,100740.31
2023-01-22T01:36:07.807Z,100747.84
2023-01-22T01:38:34.339Z,100740.31
2023-01-22T01:41:00.878Z,100734.13
2023-01-22T01:43:27.844Z,100738.66
2023-01-22T01:45:56.442Z,100736.53
2023-01-22T01:48:28.530Z,100723.59
2023-01-22T01:51:35.668Z,100730.78
2023-01-22T01:54:03.354Z,100729.97
2023-01-22T01:56:35.256Z,100736.16
2023-01-22T01:59:05.445Z,100728.66
2023-01-22T02:01:33.287Z,100736.06
2023-01-22T02:04:00.601Z,100736.16
2023-01-22T02:06:27.637Z,100737.16
2023-01-22T02:08:55.118Z,100749.41
2023-01-22T02:11:22.691Z,100744.69
2023-01-22T02:14:08.787Z,100754.47
2023-01-22T02:16:35.208Z,100752.47
2023-01-22T02:19:02.395Z,100755.59
2023-01-22T02:21:39.279Z,100753.53
2023-01-22T02:24:24.452Z,100758.41
2023-01-22T02:26:50.887Z,100763.06
2023-01-22T02:29:17.481Z,100768.41
2023-01-22T02:31:44.055Z,100765.81
2023-01-22T02:34:11.127Z,100773.19
2023-01-22T02:36:38.991Z,100763.06
2023-01-22T02:39:06.544Z,100766.16
2023-01-22T02:41:33.335Z,100761.53
2023-01-22T02:43:59.847Z,100762.22
2023-01-22T02:46:26.502Z,100764.31
2023-01-22T02:48:53.006Z,100768.91
2023-01-22T02:51:19.478Z,100769.28
2023-01-22T02:53:45.873Z,100768.28
2023-01-22T02:56:12.791Z,100766.75
2023-01-22T02:58:39.205Z,100773.09
2023-01-22T03:01:20.854Z,100771.03
2023-01-22T03:03:58.685Z,100767.09
2023-01-22T03:06:27.416Z,100766.97
2023-01-22T03:08:55.188Z,100767.56
2023-01-22T03:11:22.169Z,100764.31
2023-01-22T03:14:06.892Z,100769.03
2023-01-22T03:16:52.293Z,100766.84
2023-01-22T03:19:39.049Z,100773.09
2023-01-22T03:22:06.188Z,100776.94
2023-01-22T03:24:32.628Z,100781.53
2023-01-22T03:26:59.048Z,100779.84
2023-01-22T03:29:25.412Z,100777.59
2023-01-22T03:31:51.773Z,100779.19
2023-01-22T03:34:20.063Z,100782.09
2023-01-22T03:36:47.160Z,100787.63
2023-01-22T03:39:14.076Z,100786.50
2023-01-22T03:41:40.888Z,100789.41
2023-01-22T03:44:11.531Z,100789.00
2023-01-22T03:46:40.178Z,100780.44
2023-01-22T03:49:07.655Z,100790.88
2023-01-22T03:51:34.303Z,100797.00
2023-01-22T03:54:00.786Z,100798.91
2023-01-22T03:56:27.789Z,100796.56
2023-01-22T03:58:54.342Z,100798.59
2023-01-22T04:01:23.461Z,100794.50
2023-01-22T04:03:50.974Z,100799.19
2023-01-22T04:06:18.946Z,100795.94
2023-01-22T04:08:46.854Z,100801.81
2023-01-22T04:11:14.458Z,100806.25
2023-01-22T04:13:42.997Z,100804.69
2023-01-22T04:16:10.810Z,100809.00
2023-01-22T04:18:37.240Z,100809.91
2023-01-22T04:21:03.760Z,100816.13
2023-01-22T04:23:30.362Z,100813.44
2023-01-22T04:25:56.808Z,100819.63
2023-01-22T04:28:23.371Z,100818.66
2023-01-22T04:30:52.094Z,100819.50
2023-01-22T04:33:19.714Z,100816.03
2023-01-22T04:35:50.545Z,100820.44
2023-01-22T04:38:17.087Z,100821.34
2023-01-22T04:40:43.738Z,100823.03
2023-01-22T04:43:10.486Z,100815.13
2023-01-22T04:45:37.204Z,100811.75
2023-01-22T04:48:04.044Z,100820.47
2023-01-22T04:50:32.579Z,100814.41
2023-01-22T04:53:00.365Z,100817.13
2023-01-22T04:55:28.040Z,100818.81
2023-01-22T04:57:59.060Z,100825.69
2023-01-22T05:00:26.593Z,100826.56
2023-01-22T05:02:58.157Z,100830.94
2023-01-22T05:05:25.357Z,100830.78
2023-01-22T05:07:52.184Z,100825.56
2023-01-22T05:10:19.010Z,100826.44
2023-01-22T05:12:45.824Z,100835.59
2023-01-22T05:15:23.661Z,100833.03
2023-01-22T05:17:51.361Z,100828.81
2023-01-22T05:20:18.303Z,100837.56
2023-01-22T05:22:45.083Z,100838.47
2023-01-22T05:25:11.488Z,100844.19
2023-01-22T05:27:37.881Z,100839.78
2023-01-22T05:30:06.191Z,100841.56
2023-01-22T05:32:32.896Z,100849.69
2023-01-22T05:34:59.295Z,100851.81
2023-01-22T05:37:25.693Z,100844.38
2023-01-22T05:39:52.181Z,100847.56
2023-01-22T05:42:20.894Z,100854.91
2023-01-22T05:44:47.339Z,100849.97
2023-01-22T05:47:14.307Z,100854.41
2023-01-22T05:49:41.140Z,100852.34
2023-01-22T05:52:10.557Z,100855.06
2023-01-22T05:54:38.823Z,100856.88
2023-01-22T05:57:05.855Z,100858.75
2023-01-22T05:59:32.246Z,100867.59
2023-01-22T06:01:58.633Z,100860.72
2023-01-22T06:04:25.169Z,100858.75
2023-01-22T06:06:51.599Z,100854.66
2023-01-22T06:09:17.956Z,100859.16
2023-01-22T06:11:44.343Z,100868.63
2023-01-22T06:14:10.725Z,100873.84
2023-01-22T06:16:37.080Z,100874.69
2023-01-22T06:19:03.500Z,100875.59
2023-01-22T06:21:30.112Z,100872.97
2023-01-22T06:23:56.628Z,100879.75
2023-01-22T06:26:23.046Z,100886.25
2023-01-22T06:28:49.552Z,100890.06
2023-01-22T06:31:17.402Z,100897.53
2023-01-22T06:33:43.903Z,100899.78
2023-01-22T06:36:10.576Z,100906.16
2023-01-22T06:38:37.252Z,100903.53
2023-01-22T06:41:03.785Z,100904.44
2023-01-22T06:43:30.149Z,100913.25
2023-01-22T06:45:56.840Z,100911.78
2023-01-22T06:48:23.296Z,100915.19
2023-01-22T06:50:49.946Z,100915.97
2023-01-22T06:53:16.491Z,100928.59
2023-01-22T06:55:43.028Z,100925.47
2023-01-22T06:58:09.644Z,100931.00
2023-01-22T07:00:36.176Z,100931.78
2023-01-22T07:03:06.481Z,100933.03
2023-01-22T07:05:32.858Z,100929.03
2023-01-22T07:07:59.246Z,100936.06
2023-01-22T07:10:25.691Z,100938.19
2023-01-22T07:12:55.847Z,100953.00
2023-01-22T07:15:22.516Z,100942.53
2023-01-22T07:17:53.410Z,100949.97
2023-01-22T07:20:22.528Z,100958.09
2023-01-22T07:22:48.896Z,100944.25
2023-01-22T07:25:15.475Z,100938.53
2023-01-22T07:27:41.834Z,100947.44
2023-01-22T07:30:09.163Z,100946.09
2023-01-22T07:32:36.598Z,100952.03
2023-01-22T07:35:03.315Z,100955.13
2023-01-22T07:37:29.759Z,100956.69
2023-01-22T07:39:56.112Z,100965.84
2023-01-22T07:42:22.518Z,100967.59
2023-01-22T07:44:48.968Z,100967.69
2023-01-22T07:47:15.400Z,100975.09
2023-01-22T07:49:42.224Z,100981.03
2023-01-22T07:52:08.608Z,100978.13
2023-01-22T07:54:36.386Z,100992.69
2023-01-22T07:57:03.887Z,100981.53
2023-01-22T07:59:30.596Z,100989.28
2023-01-22T08:01:57.124Z,100987.69
2023-01-22T08:04:24.473Z,100991.19
2023-01-22T08:06:51.721Z,100988.28
2023-01-22T08:09:24.621Z,100985.91
2023-01-22T08:11:51.770Z,100995.00
2023-01-22T08:14:18.382Z,100996.78
2023-01-22T08:16:45.020Z,101000.41
2023-01-22T08:19:11.502Z,101001.78
2023-01-22T08:21:38.002Z,100998.47
2023-01-22T08:24:05.156Z,101016.53
2023-01-22T08:26:31.598Z,101013.06
2023-01-22T08:28:58.110Z,101019.09
2023-01-22T08:31:28.194Z,101009.78
2023-01-22T08:33:54.846Z,101022.91
2023-01-22T08:36:21.249Z,101023.88
2023-01-22T08:38:47.762Z,101023.25
2023-01-22T08:41:15.586Z,101036.47
2023-01-22T08:43:42.033Z,101034.75
2023-01-22T08:46:08.505Z,101035.44
2023-01-22T08:48:34.944Z,101039.56
2023-01-22T08:51:01.857Z,101036.59
2023-01-22T08:53:28.422Z,101032.22
2023-01-22T08:55:54.838Z,101036.03
2023-01-22T08:58:22.247Z,101027.41
2023-01-22T09:00:48.892Z,101034.31
2023-01-22T09:03:15.389Z,101033.91
2023-01-22T09:05:41.949Z,101037.44
2023-01-22T09:08:08.555Z,101033.75
2023-01-22T09:10:35.236Z,101040.69
2023-01-22T09:13:01.669Z,101033.75
2023-01-22T09:15:28.081Z,101040.84
2023-01-22T09:17:54.641Z,101045.09
2023-01-22T09:20:21.330Z,101046.06
2023-01-22T09:22:48.662Z,101051.31
2023-01-22T09:25:15.912Z,101051.31
2023-01-22T09:27:42.441Z,101048.59
2023-01-22T09:30:10.370Z,101039.72
2023-01-22T09:32:37.135Z,101044.44
2023-01-22T09:35:03.636Z,101045.22
2023-01-22T09:37:30.031Z,101049.19
2023-01-22T09:39:56.508Z,101045.78
2023-01-22T09:42:27.952Z,101051.91
2023-01-22T09:44:58.715Z,101044.66
2023-01-22T09:47:34.899Z,101054.66
2023-01-22T09:50:10.038Z,101052.13
2023-01-22T09:52:38.811Z,101061.03
2023-01-22T09:55:13.891Z,101060.03
2023-01-22T09:57:46.276Z,101057.50
2023-01-22T10:00:22.909Z,101065.25
2023-01-22T10:03:01.584Z,101059.88
2023-01-22T10:05:46.873Z,101058.22
2023-01-22T10:08:16.923Z,101066.03
2023-01-22T10:10:43.537Z,101073.88
2023-01-22T10:13:13.233Z,101077.19
2023-01-22T10:15:39.754Z,101079.75
2023-01-22T10:18:20.255Z,101078.97
2023-01-22T10:20:47.087Z,101069.16
2023-01-22T10:23:19.509Z,101075.19
2023-01-22T10:25:45.930Z,101075.31
2023-01-22T10:28:13.281Z,101081.38
2023-01-22T10:30:50.187Z,101079.47
2023-01-22T10:33:21.646Z,101082.38
2023-01-22T10:35:51.216Z,101085.50
2023-01-22T10:38:23.109Z,101092.25
2023-01-22T10:40:55.731Z,101087.03
2023-01-22T10:43:22.622Z,101089.78
2023-01-22T10:45:54.144Z,101084.78
2023-01-22T10:48:21.474Z,101079.94
2023-01-22T10:51:01.478Z,101086.28
2023-01-22T10:53:34.280Z,101080.16
2023-01-22T10:56:05.080Z,101086.88
2023-01-22T10:58:40.496Z,101095.66
2023-01-22T11:01:27.887Z,101084.34
2023-01-22T11:03:54.363Z,101090.63
2023-01-22T11:06:36.163Z,101088.28
2023-01-22T11:09:17.694Z,101086.47
2023-01-22T11:11:48.944Z,101083.06
2023-01-22T11:14:22.274Z,101082.31
2023-01-22T11:16:52.245Z,101084.09
2023-01-22T11:19:36.033Z,101078.13
2023-01-22T11:22:13.535Z,101085.63
2023-01-22T11:24:47.162Z,101078.78
2023-01-22T11:27:51.899Z,101097.22
2023-01-22T11:30:46.105Z,101096.00
2023-01-22T11:33:46.870Z,101091.28
2023-01-22T11:36:21.822Z,101098.06
2023-01-22T11:38:53.370Z,101099.69
2023-01-22T11:41:29.089Z,101093.25
2023-01-22T11:44:17.347Z,101096.94
2023-01-22T11:47:12.265Z,101092.34
2023-01-22T11:49:59.044Z,101093.38
2023-01-22T11:52:53.178Z,101086.47
2023-01-22T11:56:02.300Z,101085.97
2023-01-22T11:58:40.935Z,101084.13
2023-01-22T12:01:24.096Z,101088.25
2023-01-22T12:04:28.164Z,101076.78
2023-01-22T12:07:13.502Z,101077.56
2023-01-22T12:09:52.037Z,101064.13
2023-01-22T12:12:41.914Z,101070.94
2023-01-22T12:15:26.603Z,101071.50
2023-01-22T12:18:31.411Z,101074.09
2023-01-22T12:21:21.798Z,101072.19
2023-01-22T12:23:54.718Z,101080.88
2023-01-22T12:26:30.997Z,101075.75
2023-01-22T12:29:29.353Z,101072.75
2023-01-22T12:32:08.798Z,101075.31
2023-01-22T12:34:43.504Z,101078.91
2023-01-22T12:37:15.918Z,101084.78
2023-01-22T12:39:54.936Z,101083.94
2023-01-22T12:42:39.143Z,101080.25
2023-01-22T12:45:20.241Z,101081.53
2023-01-22T12:47:53.547Z,101072.63
2023-01-22T12:50:25.348Z,101072.63
2023-01-22T12:53:05.879Z,101083.28
2023-01-22T12:55:38.737Z,101081.25
2023-01-22T12:58:18.228Z,101085.81
2023-01-22T13:00:44.622Z,101083.00
2023-01-22T13:03:32.137Z,101079.56
2023-01-22T13:06:00.601Z,101087.53
2023-01-22T13:08:36.299Z,101081.53
2023-01-22T13:11:09.839Z,101089.44
2023-01-22T13:13:44.997Z,101081.94
2023-01-22T13:16:22.754Z,101096.78
2023-01-22T13:18:54.878Z,101107.16
2023-01-22T13:21:29.851Z,101098.56
2023-01-22T13:24:06.526Z,101101.94
2023-01-22T13:26:35.726Z,101109.28
2023-01-22T13:29:06.708Z,101103.97
2023-01-22T13:31:34.686Z,101103.84
2023-01-22T13:34:08.755Z,101106.44
2023-01-22T13:36:44.266Z,101103.13
2023-01-22T13:39:31.748Z,101104.13
2023-01-22T13:42:02.217Z,101112.91
2023-01-22T13:44:38.949Z,101109.78
2023-01-22T13:47:05.701Z,101111.69
2023-01-22T13:49:34.456Z,101109.63
2023-01-22T13:52:06.649Z,101113.16
2023-01-22T13:54:42.581Z,101133.19
2023-01-22T13:57:13.395Z,101121.91
2023-01-22T13:59:39.963Z,101129.22
2023-01-22T14:02:34.633Z,101126.41
2023-01-22T14:05:01.873Z,101123.81
2023-01-22T14:07:32.170Z,101123.47
2023-01-22T14:10:15.467Z,101122.59
2023-01-22T14:12:42.320Z,101128.84
2023-01-22T14:15:21.124Z,101130.25
2023-01-22T14:17:49.722Z,101125.59
2023-01-22T14:20:17.433Z,101124.19
2023-01-22T14:22:44.100Z,101142.59
2023-01-22T14:25:10.612Z,101136.72
2023-01-22T14:27:47.999Z,101142.38
2023-01-22T14:30:20.730Z,101126.00
2023-01-22T14:32:47.594Z,101128.19
2023-01-22T14:35:23.520Z,101131.22
2023-01-22T14:37:50.773Z,101123.84
2023-01-22T14:40:19.386Z,101132.31
2023-01-22T14:42:47.090Z,101127.06
2023-01-22T14:45:16.731Z,101126.56
2023-01-22T14:47:43.385Z,101117.13
2023-01-22T14:50:10.329Z,101124.47
2023-01-22T14:52:38.120Z,101134.56
2023-01-22T14:55:05.122Z,101126.56
2023-01-22T14:57:31.797Z,101133.88
2023-01-22T14:59:58.172Z,101131.38
2023-01-22T15:02:24.597Z,101133.84
2023-01-22T15:04:51.064Z,101133.97
2023-01-22T15:07:17.429Z,101134.91
2023-01-22T15:09:43.923Z,101145.09
2023-01-22T15:12:10.506Z,101143.66
2023-01-22T15:14:36.923Z,101148.88
2023-01-22T15:17:03.306Z,101153.78
2023-01-22T15:19:38.944Z,101151.38
2023-01-22T15:22:07.252Z,101151.00
2023-01-22T15:24:33.598Z,101150.72
2023-01-22T15:27:00.074Z,101148.06
2023-01-22T15:29:26.502Z,101154.41
2023-01-22T15:31:53.103Z,101149.09
2023-01-22T15:34:20.011Z,101148.94
2023-01-22T15:36:46.390Z,101152.13
2023-01-22T15:39:12.788Z,101144.03
2023-01-22T15:41:39.466Z,101143.34
2023-01-22T15:44:06.404Z,101143.41
2023-01-22T15:46:38.863Z,101157.63
2023-01-22T15:49:08.181Z,101150.47
2023-01-22T15:51:35.865Z,101159.00
2023-01-22T15:54:04.634Z,101165.22
2023-01-22T15:56:33.511Z,101166.78
2023-01-22T15:58:59.992Z,101173.16
2023-01-22T16:01:27.497Z,101179.91
2023-01-22T16:03:54.675Z,101181.53
2023-01-22T16:06:23.634Z,101182.97
2023-01-22T16:08:51.419Z,101189.25
2023-01-22T16:11:18.163Z,101185.72
2023-01-22T16:13:44.908Z,101185.97
2023-01-22T16:16:19.983Z,101187.84
2023-01-22T16:18:47.765Z,101196.69
2023-01-22T16:21:14.896Z,101198.41
2023-01-22T16:23:43.145Z,101205.19
2023-01-22T16:26:16.259Z,101200.63
2023-01-22T16:28:43.234Z,101199.84
2023-01-22T16:31:13.832Z,101204.78
2023-01-22T16:33:43.075Z,101203.88
2023-01-22T16:36:14.887Z,101197.47
2023-01-22T16:38:41.761Z,101196.03
2023-01-22T16:41:27.326Z,101201.25
2023-01-22T16:44:01.784Z,101210.28
2023-01-22T16:46:31.062Z,101207.66
2023-01-22T16:49:00.143Z,101209.22
2023-01-22T16:51:28.549Z,101210.47
2023-01-22T16:53:55.543Z,101212.75
2023-01-22T16:56:22.170Z,101214.44
2023-01-22T16:58:48.554Z,101203.59
2023-01-22T17:01:15.654Z,101216.84
2023-01-22T17:03:42.811Z,101221.63
2023-01-22T17:06:40.514Z,101215.63
2023-01-22T17:09:11.811Z,101214.91
2023-01-22T17:11:38.246Z,101224.91
2023-01-22T17:14:07.528Z,101221.53
2023-01-22T17:16:34.391Z,101224.00
2023-01-22T17:19:00.967Z,101226.88
2023-01-22T17:21:28.948Z,101225.31
2023-01-22T17:23:55.466Z,101231.06
2023-01-22T17:26:21.834Z,101231.06
2023-01-22T17:28:48.254Z,101226.75
2023-01-22T17:31:17.563Z,101229.84
2023-01-22T17:33:44.446Z,101228.56
2023-01-22T17:36:14.928Z,101241.94
2023-01-22T17:38:41.668Z,101244.38
2023-01-22T17:41:12.337Z,101240.59
2023-01-22T17:43:39.017Z,101252.41
2023-01-22T17:46:11.396Z,101253.50
2023-01-22T17:48:38.456Z,101253.66
2023-01-22T17:51:09.773Z,101265.28
2023-01-22T17:53:38.741Z,101266.41
2023-01-22T17:56:09.375Z,101266.44
2023-01-22T17:58:36.237Z,101264.84
2023-01-22T18:01:04.937Z,101271.16
2023-01-22T18:03:31.419Z,101275.47
2023-01-22T18:05:58.046Z,101271.16
2023-01-22T18:08:24.526Z,101269.53
2023-01-22T18:10:51.039Z,101274.94
2023-01-22T18:13:17.611Z,101272.91
2023-01-22T18:15:48.239Z,101262.66
2023-01-22T18:18:16.332Z,101274.16
2023-01-22T18:20:44.497Z,101278.16
2023-01-22T18:23:12.112Z,101285.13
2023-01-22T18:25:46.704Z,101277.81
2023-01-22T18:28:14.947Z,101286.31
2023-01-22T18:30:41.416Z,101288.28
2023-01-22T18:33:08.019Z,101293.75
2023-01-22T18:35:34.665Z,101292.06
2023-01-22T18:38:02.111Z,101298.66
2023-01-22T18:40:30.775Z,101295.56
2023-01-22T18:42:58.119Z,101295.56
2023-01-22T18:45:25.100Z,101299.09
2023-01-22T18:47:53.764Z,101300.16
2023-01-22T18:50:22.030Z,101297.66
2023-01-22T18:52:49.307Z,101313.44
2023-01-22T18:55:17.093Z,101305.69
2023-01-22T18:57:46.315Z,101313.56
2023-01-22T19:00:13.694Z,101311.03
2023-01-22T19:02:40.631Z,101320.63
2023-01-22T19:05:07.355Z,101310.56
2023-01-22T19:07:38.046Z,101322.56
2023-01-22T19:10:07.817Z,101327.09
2023-01-22T19:12:34.170Z,101325.41
2023-01-22T19:15:01.067Z,101322.69
2023-01-22T19:17:27.584Z,101328.88
2023-01-22T19:19:54.131Z,101333.38
2023-01-22T19:22:23.416Z,101331.72
2023-01-22T19:24:50.812Z,101327.16
2023-01-22T19:27:17.310Z,101335.56
2023-01-22T19:29:45.701Z,101339.03
2023-01-22T19:32:15.107Z,101338.47
2023-01-22T19:34:41.841Z,101331.56
2023-01-22T19:37:08.867Z,101348.19
2023-01-22T19:39:36.063Z,101349.03
2023-01-22T19:42:05.351Z,101354.50
2023-01-22T19:44:33.465Z,101350.00
2023-01-22T19:47:00.724Z,101359.53
2023-01-22T19:49:27.366Z,101354.38
2023-01-22T19:51:55.178Z,101350.13
2023-01-22T19:54:22.504Z,101361.78
2023-01-22T19:56:48.979Z,101368.44
2023-01-22T19:59:17.694Z,101367.72
2023-01-22T20:01:45.839Z,101358.00
2023-01-22T20:04:28.745Z,101363.19
2023-01-22T20:07:01.206Z,101366.53
2023-01-22T20:09:29.476Z,101368.66
2023-01-22T20:11:57.665Z,101372.78
2023-01-22T20:14:35.390Z,101375.41
2023-01-22T20:17:02.674Z,101376.19
2023-01-22T20:19:29.707Z,101379.00
2023-01-22T20:21:56.567Z,101372.28
2023-01-22T20:24:23.009Z,101378.97
2023-01-22T20:26:49.370Z,101372.78
2023-01-22T20:29:15.997Z,101375.41
2023-01-22T20:31:42.528Z,101379.69
2023-01-22T20:34:08.967Z,101376.19
2023-01-22T20:36:35.640Z,101379.78
2023-01-22T20:39:02.100Z,101376.25
2023-01-22T20:41:30.024Z,101380.50
2023-01-22T20:43:57.289Z,101383.91
2023-01-22T20:46:25.434Z,101386.56
2023-01-22T20:48:52.721Z,101388.38
2023-01-22T20:51:22.218Z,101391.88
2023-01-22T20:53:50.516Z,101400.53
2023-01-22T20:56:20.921Z,101397.84
2023-01-22T20:58:47.429Z,101403.06
2023-01-22T21:01:19.050Z,101399.63
2023-01-22T21:03:47.476Z,101410.03
2023-01-22T21:06:17.128Z,101404.00
2023-01-22T21:08:47.254Z,101414.47
2023-01-22T21:11:17.714Z,101406.50
2023-01-22T21:13:44.559Z,101409.91
2023-01-22T21:16:14.139Z,101409.81
2023-01-22T21:18:43.707Z,101416.81
2023-01-22T21:21:18.257Z,101411.59
2023-01-22T21:23:47.113Z,101416.69
2023-01-22T21:26:19.273Z,101411.13
2023-01-22T21:28:47.857Z,101424.25
2023-01-22T21:31:17.517Z,101431.16
2023-01-22T21:33:44.573Z,101429.41
2023-01-22T21:36:12.408Z,101435.56
2023-01-22T21:38:39.282Z,101438.72
2023-01-22T21:41:08.863Z,101443.31
2023-01-22T21:43:54.886Z,101447.69
2023-01-22T21:46:27.572Z,101451.94
2023-01-22T21:48:58.084Z,101452.00
2023-01-22T21:51:29.441Z,101448.38
2023-01-22T21:53:58.024Z,101453.47
2023-01-22T21:56:25.125Z,101455.13
2023-01-22T21:58:51.537Z,101456.69
2023-01-22T22:01:21.163Z,101460.03
2023-01-22T22:03:48.018Z,101453.81
2023-01-22T22:06:14.573Z,101460.84
2023-01-22T22:08:43.458Z,101457.31
2023-01-22T22:11:12.289Z,101462.53
2023-01-22T22:13:38.943Z,101464.13
2023-01-22T22:16:07.961Z,101462.13
2023-01-22T22:18:35.550Z,101460.56
2023-01-22T22:21:04.647Z,101476.16
2023-01-22T22:23:31.565Z,101474.34
2023-01-22T22:25:58.671Z,101476.03
2023-01-22T22:28:25.323Z,101479.69
2023-01-22T22:30:51.747Z,101490.16
2023-01-22T22:33:18.957Z,101483.19
2023-01-22T22:35:46.557Z,101488.44
2023-01-22T22:38:14.040Z,101479.69
2023-01-22T22:40:40.616Z,101484.00
2023-01-22T22:43:07.255Z,101481.81
2023-01-22T22:45:37.422Z,101478.41
2023-01-22T22:48:04.550Z,101486.38
2023-01-22T22:50:30.964Z,101483.88
2023-01-22T22:52:57.342Z,101494.34
2023-01-22T22:55:24.989Z,101489.91
2023-01-22T22:57:51.437Z,101492.41
2023-01-22T23:00:18.377Z,101498.66
2023-01-22T23:02:44.972Z,101496.94
2023-01-22T23:05:11.355Z,101510.94
2023-01-22T23:07:37.723Z,101504.75
2023-01-22T23:10:04.515Z,101510.81
2023-01-22T23:12:30.888Z,101500.28
2023-01-22T23:14:57.402Z,101505.59
2023-01-22T23:17:23.783Z,101510.81
2023-01-22T23:19:50.297Z,101517.84
2023-01-22T23:22:16.716Z,101526.63
2023-01-22T23:24:44.799Z,101530.13
2023-01-22T23:27:11.178Z,101530.13
2023-01-22T23:29:38.187Z,101524.81
2023-01-22T23:32:04.686Z,101528.19
2023-01-22T23:34:31.398Z,101516.03
2023-01-22T23:36:57.743Z,101525.34
2023-01-22T23:39:24.141Z,101533.06
2023-01-22T23:41:50.782Z,101521.03
2023-01-22T23:44:17.645Z,101531.59
2023-01-22T23:46:44.801Z,101530.63
2023-01-22T23:49:11.237Z,101527.75
2023-01-22T23:51:40.961Z,101538.53
2023-01-22T23:54:07.732Z,101542.06
2023-01-22T23:56:34.538Z,101545.72
2023-01-22T23:59:00.998Z,101550.19
